createdAt,value
2019-03-05T00:00:23.909Z,98626
2019-03-05T00:05:23.947Z,98618
2019-03-05T00:10:23.910Z,98628
2019-03-05T00:15:23.916Z,98621
2019-03-05T00:20:23.957Z,98623
2019-03-05T00:25:23.959Z,98621
2019-03-05T00:30:23.953Z,98628
2019-03-05T00:35:23.951Z,98621
2019-03-05T00:40:23.953Z,98616
2019-03-05T00:45:23.954Z,98627
2019-03-05T00:50:23.938Z,98627
2019-03-05T00:55:23.960Z,98628
2019-03-05T01:00:23.919Z,98634
2019-03-05T01:05:23.986Z,98632
2019-03-05T01:10:23.951Z,98632
2019-03-05T01:15:23.957Z,98621
2019-03-05T01:20:23.919Z,98607
2019-03-05T01:25:23.975Z,98617
2019-03-05T01:30:23.961Z,98626
2019-03-05T01:35:23.918Z,98621
2019-03-05T01:40:23.992Z,98625
2019-03-05T01:45:23.959Z,98628
2019-03-05T01:50:23.913Z,98626
2019-03-05T01:55:23.949Z,98633
2019-03-05T02:00:23.950Z,98626
2019-03-05T02:05:23.947Z,98622
2019-03-05T02:10:23.960Z,98627
2019-03-05T02:15:23.939Z,98629
2019-03-05T02:20:23.954Z,98633
2019-03-05T02:25:23.948Z,98638
2019-03-05T02:30:23.964Z,98650
2019-03-05T02:35:23.985Z,98643
2019-03-05T02:40:23.968Z,98637
2019-03-05T02:45:23.943Z,98645
2019-03-05T02:50:23.978Z,98634
2019-03-05T02:55:23.916Z,98638
2019-03-05T03:00:23.976Z,98635
2019-03-05T03:05:23.980Z,98657
2019-03-05T03:10:23.951Z,98656
2019-03-05T03:15:24.091Z,98663
2019-03-05T03:20:23.975Z,98656
2019-03-05T03:25:23.963Z,98673
2019-03-05T03:30:23.952Z,98667
2019-03-05T03:35:23.972Z,98667
2019-03-05T03:40:23.971Z,98672
2019-03-05T03:45:23.972Z,98689
2019-03-05T03:50:24.011Z,98692
2019-03-05T03:55:23.959Z,98687
2019-03-05T04:00:23.967Z,98691
2019-03-05T04:05:24.048Z,98695
2019-03-05T04:10:23.971Z,98714
2019-03-05T04:15:23.988Z,98711
2019-03-05T04:20:23.961Z,98702
2019-03-05T04:25:23.960Z,98704
2019-03-05T04:30:23.977Z,98713
2019-03-05T04:35:23.962Z,98723
2019-03-05T04:40:23.975Z,98711
2019-03-05T04:45:23.931Z,98715
2019-03-05T04:50:23.970Z,98717
2019-03-05T04:55:23.965Z,98711
2019-03-05T05:00:23.990Z,98726
2019-03-05T05:05:23.966Z,98732
2019-03-05T05:10:23.968Z,98738
2019-03-05T05:15:23.958Z,98746
2019-03-05T05:20:23.934Z,98744
2019-03-05T05:25:23.965Z,98747
2019-03-05T05:30:23.978Z,98749
2019-03-05T05:35:23.927Z,98760
2019-03-05T05:40:23.972Z,98751
2019-03-05T05:45:23.971Z,98761
2019-03-05T05:50:23.959Z,98768
2019-03-05T05:55:23.986Z,98773
2019-03-05T06:00:23.984Z,98768
2019-03-05T06:05:23.962Z,98765
2019-03-05T06:10:23.932Z,98777
2019-03-05T06:15:23.981Z,98787
2019-03-05T06:20:23.978Z,98772
2019-03-05T06:25:23.969Z,98807
2019-03-05T06:30:23.999Z,98808
2019-03-05T06:35:23.981Z,98806
2019-03-05T06:40:23.958Z,98805
2019-03-05T06:45:23.971Z,98814
2019-03-05T06:50:23.980Z,98809
2019-03-05T06:55:23.984Z,98823
2019-03-05T07:00:23.933Z,98801
2019-03-05T07:05:23.979Z,98818
2019-03-05T07:10:23.931Z,98817
2019-03-05T07:15:23.971Z,98834
2019-03-05T07:20:23.980Z,98830
2019-03-05T07:25:23.940Z,98835
2019-03-05T07:30:23.986Z,98842
2019-03-05T07:35:23.927Z,98855
2019-03-05T07:40:23.976Z,98841
2019-03-05T07:45:23.978Z,98848
2019-03-05T07:50:23.978Z,98853
2019-03-05T07:55:23.959Z,98862
2019-03-05T08:00:23.983Z,98865
2019-03-05T08:05:24.019Z,98868
2019-03-05T08:10:23.980Z,98888
2019-03-05T08:15:23.944Z,98888
2019-03-05T08:20:23.971Z,98891
2019-03-05T08:25:23.982Z,98911
2019-03-05T08:30:23.973Z,98920
2019-03-05T08:35:23.987Z,98914
2019-03-05T08:40:23.941Z,98919
2019-03-05T08:45:29.083Z,98931
2019-03-05T08:50:23.983Z,98939
2019-03-05T08:55:23.982Z,98937
2019-03-05T09:00:23.985Z,98938
2019-03-05T09:05:23.938Z,98944
2019-03-05T09:10:23.971Z,98947
2019-03-05T09:15:23.986Z,98949
2019-03-05T09:20:23.985Z,98947
2019-03-05T09:25:23.973Z,98953
2019-03-05T09:30:23.972Z,98948
2019-03-05T09:35:23.991Z,98952
2019-03-05T09:40:23.995Z,98946
2019-03-05T09:45:23.946Z,98953
2019-03-05T09:50:23.982Z,98944
2019-03-05T09:55:23.992Z,98948
2019-03-05T10:00:24.025Z,98940
2019-03-05T10:05:23.945Z,98940
2019-03-05T10:10:23.959Z,98946
2019-03-05T10:15:23.999Z,98947
2019-03-05T10:20:23.978Z,98949
2019-03-05T10:25:23.997Z,98919
2019-03-05T10:30:24.936Z,98927
2019-03-05T10:35:23.993Z,98942
2019-03-05T10:40:24.002Z,98939
2019-03-05T10:45:23.980Z,98958
2019-03-05T10:50:23.981Z,98952
2019-03-05T10:55:26.427Z,98963
2019-03-05T11:00:23.947Z,98959
2019-03-05T11:05:23.995Z,98946
2019-03-05T11:10:24.033Z,98969
2019-03-05T11:15:23.994Z,98981
2019-03-05T11:20:23.984Z,98975
2019-03-05T11:25:24.002Z,98982
2019-03-05T11:30:35.171Z,98968
2019-03-05T11:35:23.983Z,98978
2019-03-05T11:40:24.007Z,98965
2019-03-05T11:45:23.957Z,98985
2019-03-05T11:50:23.993Z,98982
2019-03-05T11:55:23.970Z,98993
2019-03-05T12:00:23.997Z,98993
2019-03-05T12:05:24.054Z,98982
2019-03-05T12:10:23.955Z,98994
2019-03-05T12:15:24.007Z,99005
2019-03-05T12:20:23.980Z,98994
2019-03-05T12:25:24.015Z,99007
2019-03-05T12:30:23.999Z,98994
2019-03-05T12:35:24.007Z,99003
2019-03-05T12:40:24.015Z,99008
2019-03-05T12:45:23.956Z,99003
2019-03-05T12:50:24.008Z,98996
2019-03-05T12:55:24.005Z,99001
2019-03-05T13:00:23.955Z,99006
2019-03-05T13:05:24.003Z,99019
2019-03-05T13:10:23.977Z,99003
2019-03-05T13:15:24.000Z,99009
2019-03-05T13:20:26.138Z,99010
2019-03-05T13:25:24.349Z,99033
2019-03-05T13:30:25.748Z,99032
2019-03-05T13:35:25.310Z,99025
2019-03-05T13:40:23.997Z,99033
2019-03-05T13:45:23.991Z,99041
2019-03-05T13:50:24.335Z,99030
2019-03-05T13:55:26.820Z,99029
2019-03-05T14:00:24.006Z,99036
2019-03-05T14:05:24.020Z,99030
2019-03-05T14:10:26.073Z,99027
2019-03-05T14:15:23.974Z,99025
2019-03-05T14:20:31.674Z,99021
2019-03-05T14:25:24.028Z,99049
2019-03-05T14:30:24.005Z,99049
2019-03-05T14:35:24.022Z,99044
2019-03-05T14:40:24.990Z,99055
2019-03-05T14:45:24.045Z,99062
2019-03-05T14:50:24.068Z,99065
2019-03-05T14:55:24.062Z,99058
2019-03-05T15:00:24.024Z,99068
2019-03-05T15:05:24.027Z,99094
2019-03-05T15:10:24.051Z,99092
2019-03-05T15:15:24.036Z,99104
2019-03-05T15:20:24.023Z,99120
2019-03-05T15:25:23.967Z,99113
2019-03-05T15:30:24.017Z,99120
2019-03-05T15:35:24.014Z,99127
2019-03-05T15:40:24.074Z,99126
2019-03-05T15:45:24.028Z,99128
2019-03-05T15:50:23.969Z,99127
2019-03-05T15:55:23.975Z,99138
2019-03-05T16:00:24.019Z,99144
2019-03-05T16:05:23.985Z,99149
2019-03-05T16:10:24.015Z,99158
2019-03-05T16:15:23.989Z,99163
2019-03-05T16:20:25.704Z,99170
2019-03-05T16:25:24.038Z,99169
2019-03-05T16:30:24.013Z,99177
2019-03-05T16:35:24.076Z,99191
2019-03-05T16:40:24.007Z,99200
2019-03-05T16:45:24.002Z,99216
2019-03-05T16:50:24.001Z,99220
2019-03-05T16:55:24.028Z,99225
2019-03-05T17:00:24.002Z,99241
2019-03-05T17:05:24.021Z,99250
2019-03-05T17:10:24.012Z,99257
2019-03-05T17:15:23.970Z,99267
2019-03-05T17:20:24.027Z,99273
2019-03-05T17:25:24.026Z,99288
2019-03-05T17:30:24.024Z,99305
2019-03-05T17:35:24.022Z,99305
2019-03-05T17:40:24.001Z,99319
2019-03-05T17:45:24.024Z,99335
2019-03-05T17:50:23.978Z,99349
2019-03-05T17:55:26.980Z,99349
2019-03-05T18:00:24.031Z,99363
2019-03-05T18:05:24.060Z,99358
2019-03-05T18:10:24.033Z,99367
2019-03-05T18:15:24.006Z,99366
2019-03-05T18:20:24.033Z,99370
2019-03-05T18:25:24.020Z,99398
2019-03-05T18:30:24.033Z,99397
2019-03-05T18:35:24.017Z,99413
2019-03-05T18:40:24.033Z,99414
2019-03-05T18:45:23.987Z,99423
2019-03-05T18:50:24.027Z,99439
2019-03-05T18:55:24.017Z,99431
2019-03-05T19:00:24.010Z,99451
2019-03-05T19:05:24.039Z,99464
2019-03-05T19:10:23.983Z,99470
2019-03-05T19:15:24.069Z,99489
2019-03-05T19:20:24.017Z,99487
2019-03-05T19:25:24.057Z,99515
2019-03-05T19:30:24.079Z,99514
2019-03-05T19:35:24.101Z,99517
2019-03-05T19:40:24.021Z,99529
2019-03-05T19:45:24.026Z,99538
2019-03-05T19:50:24.028Z,99541
2019-03-05T19:55:24.030Z,99557
2019-03-05T20:00:24.026Z,99557
2019-03-05T20:05:24.019Z,99574
2019-03-05T20:10:24.025Z,99570
2019-03-05T20:15:24.061Z,99579
2019-03-05T20:20:23.984Z,99587
2019-03-05T20:25:24.039Z,99579
2019-03-05T20:30:24.024Z,99585
2019-03-05T20:35:24.026Z,99590
2019-03-05T20:40:24.024Z,99585
2019-03-05T20:45:24.024Z,99596
2019-03-05T20:50:24.022Z,99608
2019-03-05T20:55:24.000Z,99605
2019-03-05T21:00:24.023Z,99615
2019-03-05T21:05:24.073Z,99624
2019-03-05T21:10:24.018Z,99631
2019-03-05T21:15:24.030Z,99631
2019-03-05T21:20:24.013Z,99645
2019-03-05T21:25:24.034Z,99651
2019-03-05T21:30:24.028Z,99660
2019-03-05T21:35:23.987Z,99670
2019-03-05T21:40:24.024Z,99682
2019-03-05T21:45:24.032Z,99681
2019-03-05T21:50:24.038Z,99681
2019-03-05T21:55:24.081Z,99689
2019-03-05T22:00:24.087Z,99697
2019-03-05T22:05:23.983Z,99709
2019-03-05T22:10:24.035Z,99715
2019-03-05T22:15:24.034Z,99719
2019-03-05T22:20:24.033Z,99712
2019-03-05T22:25:24.036Z,99727
2019-03-05T22:30:24.028Z,99724
2019-03-05T22:35:24.031Z,99731
2019-03-05T22:40:23.994Z,99742
2019-03-05T22:45:24.032Z,99754
2019-03-05T22:50:24.043Z,99752
2019-03-05T22:55:24.019Z,99743
2019-03-05T23:00:24.042Z,99747
2019-03-05T23:05:24.065Z,99762
2019-03-05T23:10:24.033Z,99762
2019-03-05T23:15:24.032Z,99770
2019-03-05T23:20:24.038Z,99780
2019-03-05T23:25:24.034Z,99785
2019-03-05T23:30:23.994Z,99785
2019-03-05T23:35:24.043Z,99781
2019-03-05T23:40:24.031Z,99765
2019-03-05T23:45:24.037Z,99779
2019-03-05T23:50:24.046Z,99788
2019-03-05T23:55:24.033Z,99782
